Time;durP1;ratioP1;P1;durP2;ratioP2;P2;SDS_P1;SDS_P2;PMS_P1;PMS_P2;Temp;Humidity;BMP_temperature;BMP_pressure;BME280_temperature;BME280_humidity;BME280_pressure;Samples;Min_cycle;Max_cycle;Signal;HPM_P1;HPM_P2
2022/03/11 00:00:25;;;;;;;19.95;12.1;;;;;;;0.16;41.21387;95514.48;;;;
2022/03/11 00:01:26;;;;;;;19.95;12.1;;;;;;;0.16;41.21387;95514.48;;;;
2022/03/11 00:02:26;;;;;;;19.95;12.1;;;;;;;0.16;41.21387;95514.48;;;;
2022/03/11 00:03:27;;;;;;;19.95;12.1;;;;;;;0.16;41.21387;95514.48;;;;
2022/03/11 00:04:27;;;;;;;19.95;12.1;;;;;;;0.16;41.21387;95514.48;;;;
2022/03/11 00:05:28;;;;;;;19.95;12.1;;;;;;;0.16;41.21387;95514.48;;;;
2022/03/11 00:06:28;;;;;;;19.95;12.1;;;;;;;0.16;41.21387;95514.48;;;;
2022/03/11 00:07:30;;;;;;;19.95;12.1;;;;;;;0.16;41.21387;95514.48;;;;
2022/03/11 00:08:30;;;;;;;18.8;11.3;;;;;;;-0.1;41.60059;95507.53;;;;
2022/03/11 00:09:31;;;;;;;18.8;11.3;;;;;;;-0.1;41.60059;95507.53;;;;
2022/03/11 00:10:31;;;;;;;18.8;11.3;;;;;;;-0.1;41.60059;95507.53;;;;
2022/03/11 00:11:32;;;;;;;18.8;11.3;;;;;;;-0.1;41.60059;95507.53;;;;
2022/03/11 00:12:32;;;;;;;18.8;11.3;;;;;;;-0.1;41.60059;95507.53;;;;
2022/03/11 00:13:35;;;;;;;18.8;11.3;;;;;;;-0.1;41.60059;95507.53;;;;
2022/03/11 00:14:36;;;;;;;18.8;11.3;;;;;;;-0.1;41.60059;95507.53;;;;
2022/03/11 00:15:37;;;;;;;18.8;11.3;;;;;;;-0.1;41.60059;95507.53;;;;
2022/03/11 00:16:38;;;;;;;18.8;11.3;;;;;;;-0.1;41.60059;95507.53;;;;
2022/03/11 00:17:38;;;;;;;18.8;11.3;;;;;;;-0.1;41.60059;95507.53;;;;
2022/03/11 00:18:39;;;;;;;18.8;11.3;;;;;;;-0.1;41.60059;95507.53;;;;
2022/03/11 00:19:39;;;;;;;18.8;11.3;;;;;;;-0.1;41.60059;95507.53;;;;
2022/03/11 00:20:40;;;;;;;18.8;11.3;;;;;;;-0.1;41.60059;95507.53;;;;
2022/03/11 00:21:40;;;;;;;18.8;11.3;;;;;;;-0.1;41.60059;95507.53;;;;
2022/03/11 00:22:42;;;;;;;18.8;11.3;;;;;;;-0.1;41.60059;95507.53;;;;
2022/03/11 00:23:43;;;;;;;18.8;11.3;;;;;;;-0.1;41.60059;95507.53;;;;
2022/03/11 00:24:43;;;;;;;18.8;11.3;;;;;;;-0.1;41.60059;95507.53;;;;
2022/03/11 00:25:44;;;;;;;18.8;11.3;;;;;;;-0.1;41.60059;95507.53;;;;
2022/03/11 00:26:44;;;;;;;18.8;11.3;;;;;;;-0.1;41.60059;95507.53;;;;
2022/03/11 00:27:45;;;;;;;18.8;11.3;;;;;;;-0.1;41.60059;95507.53;;;;
2022/03/11 00:28:46;;;;;;;18.8;11.3;;;;;;;-0.1;41.60059;95507.53;;;;
2022/03/11 00:29:46;;;;;;;16.4;9.6;;;;;;;-0.2;41.71582;95497.65;;;;
2022/03/11 00:30:47;;;;;;;16.4;9.6;;;;;;;-0.2;41.71582;95497.65;;;;
2022/03/11 00:31:47;;;;;;;16.4;9.6;;;;;;;-0.2;41.71582;95497.65;;;;
2022/03/11 00:32:48;;;;;;;16.4;9.6;;;;;;;-0.2;41.71582;95497.65;;;;
2022/03/11 00:33:48;;;;;;;16.4;9.6;;;;;;;-0.2;41.71582;95497.65;;;;
2022/03/11 00:34:49;;;;;;;16.4;9.6;;;;;;;-0.2;41.71582;95497.65;;;;
2022/03/11 00:35:49;;;;;;;16.4;9.6;;;;;;;-0.2;41.71582;95497.65;;;;
2022/03/11 00:36:50;;;;;;;16.4;9.6;;;;;;;-0.2;41.71582;95497.65;;;;
2022/03/11 00:37:51;;;;;;;16.4;9.6;;;;;;;-0.2;41.71582;95497.65;;;;
2022/03/11 00:38:51;;;;;;;16.4;9.6;;;;;;;-0.2;41.71582;95497.65;;;;
2022/03/11 00:39:51;;;;;;;15.6;9;;;;;;;-0.29;41.8125;95497.31;;;;
2022/03/11 00:40:56;;;;;;;15.6;9;;;;;;;-0.29;41.8125;95497.31;;;;
2022/03/11 00:41:57;;;;;;;15.6;9;;;;;;;-0.29;41.8125;95497.31;;;;
2022/03/11 00:42:57;;;;;;;15.6;9;;;;;;;-0.29;41.8125;95497.31;;;;
2022/03/11 00:43:58;;;;;;;15.6;9;;;;;;;-0.29;41.8125;95497.31;;;;
2022/03/11 00:44:58;;;;;;;15.6;9;;;;;;;-0.29;41.8125;95497.31;;;;
2022/03/11 00:45:59;;;;;;;15.6;9;;;;;;;-0.29;41.8125;95497.31;;;;
2022/03/11 00:46:59;;;;;;;15.6;9;;;;;;;-0.29;41.8125;95497.31;;;;
2022/03/11 00:48:00;;;;;;;15.6;9;;;;;;;-0.29;41.8125;95497.31;;;;
2022/03/11 00:49:00;;;;;;;15.6;9;;;;;;;-0.29;41.8125;95497.31;;;;
2022/03/11 00:50:01;;;;;;;15.6;9;;;;;;;-0.29;41.8125;95497.31;;;;
2022/03/11 00:51:02;;;;;;;15.9;8.65;;;;;;;-0.49;41.7832;95491.49;;;;
2022/03/11 00:52:03;;;;;;;15.9;8.65;;;;;;;-0.49;41.7832;95491.49;;;;
2022/03/11 00:53:04;;;;;;;15.9;8.65;;;;;;;-0.49;41.7832;95491.49;;;;
2022/03/11 00:54:05;;;;;;;15.9;8.65;;;;;;;-0.49;41.7832;95491.49;;;;
2022/03/11 00:55:05;;;;;;;15.9;8.65;;;;;;;-0.49;41.7832;95491.49;;;;
2022/03/11 00:56:07;;;;;;;15.9;8.65;;;;;;;-0.49;41.7832;95491.49;;;;
2022/03/11 00:57:07;;;;;;;15.9;8.65;;;;;;;-0.49;41.7832;95491.49;;;;
2022/03/11 00:58:08;;;;;;;15.9;8.65;;;;;;;-0.49;41.7832;95491.49;;;;
2022/03/11 00:59:08;;;;;;;15.9;8.65;;;;;;;-0.49;41.7832;95491.49;;;;
2022/03/11 01:00:09;;;;;;;15.9;8.65;;;;;;;-0.49;41.7832;95491.49;;;;
2022/03/11 01:01:11;;;;;;;14.55;8.200001;;;;;;;-0.61;41.80371;95480.36;;;;
2022/03/11 01:02:11;;;;;;;14.55;8.200001;;;;;;;-0.61;41.80371;95480.36;;;;
2022/03/11 01:03:12;;;;;;;14.55;8.200001;;;;;;;-0.61;41.80371;95480.36;;;;
2022/03/11 01:04:12;;;;;;;14.55;8.200001;;;;;;;-0.61;41.80371;95480.36;;;;
2022/03/11 01:05:13;;;;;;;14.55;8.200001;;;;;;;-0.61;41.80371;95480.36;;;;
2022/03/11 01:06:14;;;;;;;14.55;8.200001;;;;;;;-0.61;41.80371;95480.36;;;;
2022/03/11 01:07:15;;;;;;;14.55;8.200001;;;;;;;-0.61;41.80371;95480.36;;;;
2022/03/11 01:08:15;;;;;;;14.55;8.200001;;;;;;;-0.61;41.80371;95480.36;;;;
2022/03/11 01:09:16;;;;;;;14.55;8.200001;;;;;;;-0.61;41.80371;95480.36;;;;
2022/03/11 01:10:17;;;;;;;14.55;8.200001;;;;;;;-0.61;41.80371;95480.36;;;;
2022/03/11 01:11:17;;;;;;;14.55;8.200001;;;;;;;-0.61;41.80371;95480.36;;;;
2022/03/11 01:12:18;;;;;;;14.55;8.200001;;;;;;;-0.61;41.80371;95480.36;;;;
2022/03/11 01:13:19;;;;;;;14.55;8.200001;;;;;;;-0.61;41.80371;95480.36;;;;
2022/03/11 01:14:19;;;;;;;14.55;8.200001;;;;;;;-0.61;41.80371;95480.36;;;;
2022/03/11 01:15:20;;;;;;;14.55;8.200001;;;;;;;-0.61;41.80371;95480.36;;;;
2022/03/11 01:16:21;;;;;;;14.55;8.200001;;;;;;;-0.61;41.80371;95480.36;;;;
2022/03/11 01:17:22;;;;;;;14.55;8.200001;;;;;;;-0.61;41.80371;95480.36;;;;
2022/03/11 01:18:22;;;;;;;14.55;8.200001;;;;;;;-0.61;41.80371;95480.36;;;;
2022/03/11 01:19:23;;;;;;;14.55;8.200001;;;;;;;-0.61;41.80371;95480.36;;;;
2022/03/11 01:20:23;;;;;;;14.55;8.200001;;;;;;;-0.61;41.80371;95480.36;;;;
2022/03/11 01:21:24;;;;;;;14.55;8.200001;;;;;;;-0.61;41.80371;95480.36;;;;
2022/03/11 01:22:25;;;;;;;14.55;8.200001;;;;;;;-0.61;41.80371;95480.36;;;;
2022/03/11 01:23:25;;;;;;;13.5;7.2;;;;;;;-0.95;41.64355;95476.54;;;;
2022/03/11 01:24:26;;;;;;;13.5;7.2;;;;;;;-0.95;41.64355;95476.54;;;;
2022/03/11 01:25:26;;;;;;;13.5;7.2;;;;;;;-0.95;41.64355;95476.54;;;;
2022/03/11 01:26:27;;;;;;;13.5;7.2;;;;;;;-0.95;41.64355;95476.54;;;;
2022/03/11 01:27:28;;;;;;;13.5;7.2;;;;;;;-0.95;41.64355;95476.54;;;;
2022/03/11 01:28:28;;;;;;;13.5;7.2;;;;;;;-0.95;41.64355;95476.54;;;;
2022/03/11 01:29:29;;;;;;;13.5;7.2;;;;;;;-0.95;41.64355;95476.54;;;;
2022/03/11 01:30:29;;;;;;;13.5;7.2;;;;;;;-0.95;41.64355;95476.54;;;;
2022/03/11 01:31:30;;;;;;;13.5;7.2;;;;;;;-0.95;41.64355;95476.54;;;;
2022/03/11 01:32:30;;;;;;;13.5;7.2;;;;;;;-0.95;41.64355;95476.54;;;;
2022/03/11 01:33:31;;;;;;;9.349998;5.5;;;;;;;-1.15;41.83398;95476.48;;;;
2022/03/11 01:34:32;;;;;;;9.349998;5.5;;;;;;;-1.15;41.83398;95476.48;;;;
2022/03/11 01:35:33;;;;;;;9.349998;5.5;;;;;;;-1.15;41.83398;95476.48;;;;
2022/03/11 01:36:33;;;;;;;9.349998;5.5;;;;;;;-1.15;41.83398;95476.48;;;;
2022/03/11 01:37:34;;;;;;;9.349998;5.5;;;;;;;-1.15;41.83398;95476.48;;;;
2022/03/11 01:38:35;;;;;;;9.349998;5.5;;;;;;;-1.15;41.83398;95476.48;;;;
2022/03/11 01:39:36;;;;;;;9.349998;5.5;;;;;;;-1.15;41.83398;95476.48;;;;
2022/03/11 01:40:37;;;;;;;9.349998;5.5;;;;;;;-1.15;41.83398;95476.48;;;;
2022/03/11 01:41:37;;;;;;;9.349998;5.5;;;;;;;-1.15;41.83398;95476.48;;;;
2022/03/11 01:42:39;;;;;;;9.349998;5.5;;;;;;;-1.15;41.83398;95476.48;;;;
2022/03/11 01:43:40;;;;;;;9.349998;5.5;;;;;;;-1.15;41.83398;95476.48;;;;
2022/03/11 01:44:59;;;;;;;13.5;6.2;;;;;;;-1.18;41.74609;95464.47;;;;
2022/03/11 01:46:01;;;;;;;13.5;6.2;;;;;;;-1.18;41.74609;95464.47;;;;
2022/03/11 01:47:01;;;;;;;13.5;6.2;;;;;;;-1.18;41.74609;95464.47;;;;
2022/03/11 01:48:02;;;;;;;13.5;6.2;;;;;;;-1.18;41.74609;95464.47;;;;
2022/03/11 01:49:03;;;;;;;13.5;6.2;;;;;;;-1.18;41.74609;95464.47;;;;
2022/03/11 01:50:06;;;;;;;13.5;6.2;;;;;;;-1.18;41.74609;95464.47;;;;
2022/03/11 01:51:07;;;;;;;13.5;6.2;;;;;;;-1.18;41.74609;95464.47;;;;
2022/03/11 01:52:09;;;;;;;13.5;6.2;;;;;;;-1.18;41.74609;95464.47;;;;
2022/03/11 01:53:11;;;;;;;13.5;6.2;;;;;;;-1.18;41.74609;95464.47;;;;
2022/03/11 01:54:13;;;;;;;13.5;6.2;;;;;;;-1.18;41.74609;95464.47;;;;
2022/03/11 01:55:14;;;;;;;9.15;5.5;;;;;;;-1.25;41.80273;95452.86;;;;
2022/03/11 01:56:15;;;;;;;9.15;5.5;;;;;;;-1.25;41.80273;95452.86;;;;
2022/03/11 01:57:16;;;;;;;9.15;5.5;;;;;;;-1.25;41.80273;95452.86;;;;
2022/03/11 01:58:16;;;;;;;9.15;5.5;;;;;;;-1.25;41.80273;95452.86;;;;
2022/03/11 01:59:17;;;;;;;9.15;5.5;;;;;;;-1.25;41.80273;95452.86;;;;
2022/03/11 02:00:17;;;;;;;9.15;5.5;;;;;;;-1.25;41.80273;95452.86;;;;
2022/03/11 02:01:18;;;;;;;9.15;5.5;;;;;;;-1.25;41.80273;95452.86;;;;
2022/03/11 02:02:20;;;;;;;9.15;5.5;;;;;;;-1.25;41.80273;95452.86;;;;
2022/03/11 02:03:21;;;;;;;9.15;5.5;;;;;;;-1.25;41.80273;95452.86;;;;
2022/03/11 02:04:21;;;;;;;9.15;5.5;;;;;;;-1.25;41.80273;95452.86;;;;
2022/03/11 02:05:22;;;;;;;8.9;5.4;;;;;;;-1.33;41.82617;95445.7;;;;
2022/03/11 02:06:22;;;;;;;8.9;5.4;;;;;;;-1.33;41.82617;95445.7;;;;
2022/03/11 02:07:24;;;;;;;8.9;5.4;;;;;;;-1.33;41.82617;95445.7;;;;
2022/03/11 02:08:25;;;;;;;8.9;5.4;;;;;;;-1.33;41.82617;95445.7;;;;
2022/03/11 02:09:25;;;;;;;8.9;5.4;;;;;;;-1.33;41.82617;95445.7;;;;
2022/03/11 02:10:29;;;;;;;8.9;5.4;;;;;;;-1.33;41.82617;95445.7;;;;
2022/03/11 02:11:30;;;;;;;8.9;5.4;;;;;;;-1.33;41.82617;95445.7;;;;
2022/03/11 02:12:31;;;;;;;8.9;5.4;;;;;;;-1.33;41.82617;95445.7;;;;
2022/03/11 02:13:33;;;;;;;8.9;5.4;;;;;;;-1.33;41.82617;95445.7;;;;
2022/03/11 02:14:51;;;;;;;8.9;5.4;;;;;;;-1.33;41.82617;95445.7;;;;
2022/03/11 02:15:51;;;;;;;8.9;5.4;;;;;;;-1.33;41.82617;95445.7;;;;
2022/03/11 02:16:51;;;;;;;8.9;5.4;;;;;;;-1.33;41.82617;95445.7;;;;
2022/03/11 02:17:52;;;;;;;8.9;5.4;;;;;;;-1.33;41.82617;95445.7;;;;
2022/03/11 02:18:53;;;;;;;8.9;5.4;;;;;;;-1.33;41.82617;95445.7;;;;
2022/03/11 02:19:54;;;;;;;8.9;5.4;;;;;;;-1.33;41.82617;95445.7;;;;
2022/03/11 02:20:54;;;;;;;8.9;5.4;;;;;;;-1.33;41.82617;95445.7;;;;
2022/03/11 02:21:55;;;;;;;8.9;5.4;;;;;;;-1.33;41.82617;95445.7;;;;
2022/03/11 02:22:58;;;;;;;8.9;5.4;;;;;;;-1.33;41.82617;95445.7;;;;
2022/03/11 02:23:59;;;;;;;8.9;5.4;;;;;;;-1.33;41.82617;95445.7;;;;
2022/03/11 02:25:00;;;;;;;8.9;5.4;;;;;;;-1.33;41.82617;95445.7;;;;
2022/03/11 02:26:01;;;;;;;8.9;5.4;;;;;;;-1.33;41.82617;95445.7;;;;
2022/03/11 02:27:01;;;;;;;7.400001;4.500001;;;;;;;-1.54;41.68945;95440.91;;;;
2022/03/11 02:28:02;;;;;;;7.400001;4.500001;;;;;;;-1.54;41.68945;95440.91;;;;
2022/03/11 02:29:03;;;;;;;7.400001;4.500001;;;;;;;-1.54;41.68945;95440.91;;;;
2022/03/11 02:30:05;;;;;;;7.400001;4.500001;;;;;;;-1.54;41.68945;95440.91;;;;
2022/03/11 02:31:13;;;;;;;7.400001;4.500001;;;;;;;-1.54;41.68945;95440.91;;;;
2022/03/11 02:32:14;;;;;;;7.400001;4.500001;;;;;;;-1.54;41.68945;95440.91;;;;
2022/03/11 02:33:15;;;;;;;7.400001;4.500001;;;;;;;-1.54;41.68945;95440.91;;;;
2022/03/11 02:34:16;;;;;;;7.400001;4.500001;;;;;;;-1.54;41.68945;95440.91;;;;
2022/03/11 02:35:17;;;;;;;7.400001;4.500001;;;;;;;-1.54;41.68945;95440.91;;;;
2022/03/11 02:36:18;;;;;;;7.400001;4.500001;;;;;;;-1.54;41.68945;95440.91;;;;
2022/03/11 02:37:18;;;;;;;8.75;4.75;;;;;;;-1.63;41.49219;95442.27;;;;
2022/03/11 02:38:19;;;;;;;8.75;4.75;;;;;;;-1.63;41.49219;95442.27;;;;
2022/03/11 02:39:20;;;;;;;8.75;4.75;;;;;;;-1.63;41.49219;95442.27;;;;
2022/03/11 02:40:20;;;;;;;8.75;4.75;;;;;;;-1.63;41.49219;95442.27;;;;
2022/03/11 02:41:21;;;;;;;8.75;4.75;;;;;;;-1.63;41.49219;95442.27;;;;
2022/03/11 02:42:21;;;;;;;8.75;4.75;;;;;;;-1.63;41.49219;95442.27;;;;
2022/03/11 02:43:22;;;;;;;8.75;4.75;;;;;;;-1.63;41.49219;95442.27;;;;
2022/03/11 02:44:23;;;;;;;8.75;4.75;;;;;;;-1.63;41.49219;95442.27;;;;
2022/03/11 02:45:23;;;;;;;8.75;4.75;;;;;;;-1.63;41.49219;95442.27;;;;
2022/03/11 02:46:24;;;;;;;8.75;4.75;;;;;;;-1.63;41.49219;95442.27;;;;
2022/03/11 02:47:24;;;;;;;8.75;4.75;;;;;;;-1.63;41.49219;95442.27;;;;
2022/03/11 02:48:25;;;;;;;7.950001;4.5;;;;;;;-1.76;41.40723;95445.35;;;;
2022/03/11 02:49:26;;;;;;;7.950001;4.5;;;;;;;-1.76;41.40723;95445.35;;;;
2022/03/11 02:50:27;;;;;;;7.950001;4.5;;;;;;;-1.76;41.40723;95445.35;;;;
2022/03/11 02:51:28;;;;;;;7.950001;4.5;;;;;;;-1.76;41.40723;95445.35;;;;
2022/03/11 02:52:30;;;;;;;7.950001;4.5;;;;;;;-1.76;41.40723;95445.35;;;;
2022/03/11 02:53:30;;;;;;;7.950001;4.5;;;;;;;-1.76;41.40723;95445.35;;;;
2022/03/11 02:54:31;;;;;;;7.950001;4.5;;;;;;;-1.76;41.40723;95445.35;;;;
2022/03/11 02:55:31;;;;;;;7.950001;4.5;;;;;;;-1.76;41.40723;95445.35;;;;
2022/03/11 02:56:32;;;;;;;7.950001;4.5;;;;;;;-1.76;41.40723;95445.35;;;;
2022/03/11 02:57:33;;;;;;;7.950001;4.5;;;;;;;-1.76;41.40723;95445.35;;;;
2022/03/11 02:58:33;;;;;;;7.950001;4.5;;;;;;;-1.76;41.40723;95445.35;;;;
2022/03/11 02:59:35;;;;;;;7.5;4.050001;;;;;;;-1.91;41.50684;95436.42;;;;
2022/03/11 03:00:35;;;;;;;7.5;4.050001;;;;;;;-1.91;41.50684;95436.42;;;;
2022/03/11 03:01:36;;;;;;;7.5;4.050001;;;;;;;-1.91;41.50684;95436.42;;;;
2022/03/11 03:02:36;;;;;;;7.5;4.050001;;;;;;;-1.91;41.50684;95436.42;;;;
2022/03/11 03:03:37;;;;;;;7.5;4.050001;;;;;;;-1.91;41.50684;95436.42;;;;
2022/03/11 03:04:37;;;;;;;7.5;4.050001;;;;;;;-1.91;41.50684;95436.42;;;;
2022/03/11 03:05:39;;;;;;;7.5;4.050001;;;;;;;-1.91;41.50684;95436.42;;;;
2022/03/11 03:06:39;;;;;;;7.5;4.050001;;;;;;;-1.91;41.50684;95436.42;;;;
2022/03/11 03:07:40;;;;;;;7.5;4.050001;;;;;;;-1.91;41.50684;95436.42;;;;
2022/03/11 03:08:40;;;;;;;7.5;4.050001;;;;;;;-1.91;41.50684;95436.42;;;;
2022/03/11 03:09:42;;;;;;;7.05;4.05;;;;;;;-2.06;41.54395;95438.39;;;;
2022/03/11 03:10:42;;;;;;;7.05;4.05;;;;;;;-2.06;41.54395;95438.39;;;;
2022/03/11 03:11:42;;;;;;;7.05;4.05;;;;;;;-2.06;41.54395;95438.39;;;;
2022/03/11 03:12:43;;;;;;;7.05;4.05;;;;;;;-2.06;41.54395;95438.39;;;;
2022/03/11 03:13:43;;;;;;;7.05;4.05;;;;;;;-2.06;41.54395;95438.39;;;;
2022/03/11 03:14:44;;;;;;;7.05;4.05;;;;;;;-2.06;41.54395;95438.39;;;;
2022/03/11 03:15:44;;;;;;;7.05;4.05;;;;;;;-2.06;41.54395;95438.39;;;;
2022/03/11 03:16:45;;;;;;;7.05;4.05;;;;;;;-2.06;41.54395;95438.39;;;;
2022/03/11 03:17:46;;;;;;;7.05;4.05;;;;;;;-2.06;41.54395;95438.39;;;;
2022/03/11 03:18:46;;;;;;;7.05;4.05;;;;;;;-2.06;41.54395;95438.39;;;;
2022/03/11 03:19:47;;;;;;;7.05;4.05;;;;;;;-2.06;41.54395;95438.39;;;;
2022/03/11 03:20:48;;;;;;;7.249999;4.25;;;;;;;-2.2;41.48926;95430.96;;;;
2022/03/11 03:21:48;;;;;;;7.249999;4.25;;;;;;;-2.2;41.48926;95430.96;;;;
2022/03/11 03:22:49;;;;;;;7.249999;4.25;;;;;;;-2.2;41.48926;95430.96;;;;
2022/03/11 03:23:49;;;;;;;7.249999;4.25;;;;;;;-2.2;41.48926;95430.96;;;;
2022/03/11 03:24:50;;;;;;;7.249999;4.25;;;;;;;-2.2;41.48926;95430.96;;;;
2022/03/11 03:25:50;;;;;;;7.249999;4.25;;;;;;;-2.2;41.48926;95430.96;;;;
2022/03/11 03:26:51;;;;;;;7.249999;4.25;;;;;;;-2.2;41.48926;95430.96;;;;
2022/03/11 03:27:51;;;;;;;7.249999;4.25;;;;;;;-2.2;41.48926;95430.96;;;;
2022/03/11 03:28:52;;;;;;;7.249999;4.25;;;;;;;-2.2;41.48926;95430.96;;;;
2022/03/11 03:29:53;;;;;;;7.249999;4.25;;;;;;;-2.2;41.48926;95430.96;;;;
2022/03/11 03:30:53;;;;;;;7.65;4.45;;;;;;;-2.3;41.59473;95424.92;;;;
2022/03/11 03:31:57;;;;;;;7.65;4.45;;;;;;;-2.3;41.59473;95424.92;;;;
2022/03/11 03:32:58;;;;;;;7.65;4.45;;;;;;;-2.3;41.59473;95424.92;;;;
2022/03/11 03:34:00;;;;;;;7.65;4.45;;;;;;;-2.3;41.59473;95424.92;;;;
2022/03/11 03:35:00;;;;;;;7.65;4.45;;;;;;;-2.3;41.59473;95424.92;;;;
2022/03/11 03:36:01;;;;;;;7.65;4.45;;;;;;;-2.3;41.59473;95424.92;;;;
2022/03/11 03:37:01;;;;;;;7.65;4.45;;;;;;;-2.3;41.59473;95424.92;;;;
2022/03/11 03:38:04;;;;;;;7.65;4.45;;;;;;;-2.3;41.59473;95424.92;;;;
2022/03/11 03:39:05;;;;;;;7.65;4.45;;;;;;;-2.3;41.59473;95424.92;;;;
2022/03/11 03:40:06;;;;;;;7.65;4.45;;;;;;;-2.3;41.59473;95424.92;;;;
2022/03/11 03:41:08;;;;;;;7.65;4.45;;;;;;;-2.3;41.59473;95424.92;;;;
2022/03/11 03:42:09;;;;;;;10.25;4.349999;;;;;;;-2.43;41.59082;95427.23;;;;
2022/03/11 03:43:10;;;;;;;10.25;4.349999;;;;;;;-2.43;41.59082;95427.23;;;;
2022/03/11 03:44:11;;;;;;;10.25;4.349999;;;;;;;-2.43;41.59082;95427.23;;;;
2022/03/11 03:45:11;;;;;;;10.25;4.349999;;;;;;;-2.43;41.59082;95427.23;;;;
2022/03/11 03:46:12;;;;;;;10.25;4.349999;;;;;;;-2.43;41.59082;95427.23;;;;
2022/03/11 03:47:12;;;;;;;10.25;4.349999;;;;;;;-2.43;41.59082;95427.23;;;;
2022/03/11 03:48:13;;;;;;;10.25;4.349999;;;;;;;-2.43;41.59082;95427.23;;;;
2022/03/11 03:49:13;;;;;;;10.25;4.349999;;;;;;;-2.43;41.59082;95427.23;;;;
2022/03/11 03:50:14;;;;;;;10.25;4.349999;;;;;;;-2.43;41.59082;95427.23;;;;
2022/03/11 03:51:15;;;;;;;10.25;4.349999;;;;;;;-2.43;41.59082;95427.23;;;;
2022/03/11 03:52:16;;;;;;;10.25;4.349999;;;;;;;-2.43;41.59082;95427.23;;;;
2022/03/11 03:53:16;;;;;;;10.25;4.349999;;;;;;;-2.43;41.59082;95427.23;;;;
2022/03/11 03:54:17;;;;;;;10.25;4.349999;;;;;;;-2.43;41.59082;95427.23;;;;
2022/03/11 03:55:18;;;;;;;10.25;4.349999;;;;;;;-2.43;41.59082;95427.23;;;;
2022/03/11 03:56:18;;;;;;;10.25;4.349999;;;;;;;-2.43;41.59082;95427.23;;;;
2022/03/11 03:57:19;;;;;;;10.25;4.349999;;;;;;;-2.43;41.59082;95427.23;;;;
2022/03/11 03:58:19;;;;;;;10.25;4.349999;;;;;;;-2.43;41.59082;95427.23;;;;
2022/03/11 03:59:20;;;;;;;10.25;4.349999;;;;;;;-2.43;41.59082;95427.23;;;;
2022/03/11 04:00:20;;;;;;;10.25;4.349999;;;;;;;-2.43;41.59082;95427.23;;;;
2022/03/11 04:01:21;;;;;;;10.25;4.349999;;;;;;;-2.43;41.59082;95427.23;;;;
2022/03/11 04:02:21;;;;;;;10.25;4.349999;;;;;;;-2.43;41.59082;95427.23;;;;
2022/03/11 04:03:22;;;;;;;7.05;4.45;;;;;;;-2.6;41.45996;95413.05;;;;
2022/03/11 04:04:22;;;;;;;7.05;4.45;;;;;;;-2.6;41.45996;95413.05;;;;
2022/03/11 04:05:23;;;;;;;7.05;4.45;;;;;;;-2.6;41.45996;95413.05;;;;
2022/03/11 04:06:24;;;;;;;7.05;4.45;;;;;;;-2.6;41.45996;95413.05;;;;
2022/03/11 04:07:24;;;;;;;7.05;4.45;;;;;;;-2.6;41.45996;95413.05;;;;
2022/03/11 04:08:25;;;;;;;7.05;4.45;;;;;;;-2.6;41.45996;95413.05;;;;
2022/03/11 04:09:26;;;;;;;7.05;4.45;;;;;;;-2.6;41.45996;95413.05;;;;
2022/03/11 04:10:26;;;;;;;7.05;4.45;;;;;;;-2.6;41.45996;95413.05;;;;
2022/03/11 04:11:27;;;;;;;7.05;4.45;;;;;;;-2.6;41.45996;95413.05;;;;
2022/03/11 04:12:28;;;;;;;7.05;4.45;;;;;;;-2.6;41.45996;95413.05;;;;
2022/03/11 04:13:29;;;;;;;8.399999;4.65;;;;;;;-2.68;41.31543;95421.83;;;;
2022/03/11 04:14:29;;;;;;;8.399999;4.65;;;;;;;-2.68;41.31543;95421.83;;;;
2022/03/11 04:15:30;;;;;;;8.399999;4.65;;;;;;;-2.68;41.31543;95421.83;;;;
2022/03/11 04:16:30;;;;;;;8.399999;4.65;;;;;;;-2.68;41.31543;95421.83;;;;
2022/03/11 04:17:31;;;;;;;8.399999;4.65;;;;;;;-2.68;41.31543;95421.83;;;;
2022/03/11 04:18:32;;;;;;;8.399999;4.65;;;;;;;-2.68;41.31543;95421.83;;;;
2022/03/11 04:19:33;;;;;;;8.399999;4.65;;;;;;;-2.68;41.31543;95421.83;;;;
2022/03/11 04:20:34;;;;;;;8.399999;4.65;;;;;;;-2.68;41.31543;95421.83;;;;
2022/03/11 04:21:34;;;;;;;8.399999;4.65;;;;;;;-2.68;41.31543;95421.83;;;;
2022/03/11 04:22:35;;;;;;;8.399999;4.65;;;;;;;-2.68;41.31543;95421.83;;;;
2022/03/11 04:23:39;;;;;;;8.399999;4.65;;;;;;;-2.68;41.31543;95421.83;;;;
2022/03/11 04:24:40;;;;;;;7.35;4.6;;;;;;;-2.75;41.40332;95424.74;;;;
2022/03/11 04:25:40;;;;;;;7.35;4.6;;;;;;;-2.75;41.40332;95424.74;;;;
2022/03/11 04:26:41;;;;;;;7.35;4.6;;;;;;;-2.75;41.40332;95424.74;;;;
2022/03/11 04:27:42;;;;;;;7.35;4.6;;;;;;;-2.75;41.40332;95424.74;;;;
2022/03/11 04:28:42;;;;;;;7.35;4.6;;;;;;;-2.75;41.40332;95424.74;;;;
2022/03/11 04:29:43;;;;;;;7.35;4.6;;;;;;;-2.75;41.40332;95424.74;;;;
2022/03/11 04:30:43;;;;;;;7.35;4.6;;;;;;;-2.75;41.40332;95424.74;;;;
2022/03/11 04:31:44;;;;;;;7.35;4.6;;;;;;;-2.75;41.40332;95424.74;;;;
2022/03/11 04:32:44;;;;;;;7.35;4.6;;;;;;;-2.75;41.40332;95424.74;;;;
2022/03/11 04:33:45;;;;;;;7.35;4.6;;;;;;;-2.75;41.40332;95424.74;;;;
2022/03/11 04:34:45;;;;;;;7.35;4.6;;;;;;;-2.75;41.40332;95424.74;;;;
2022/03/11 04:35:46;;;;;;;7.35;4.6;;;;;;;-2.75;41.40332;95424.74;;;;
2022/03/11 04:36:46;;;;;;;7.35;4.6;;;;;;;-2.75;41.40332;95424.74;;;;
2022/03/11 04:37:47;;;;;;;7.35;4.6;;;;;;;-2.75;41.40332;95424.74;;;;
2022/03/11 04:38:47;;;;;;;7.35;4.6;;;;;;;-2.75;41.40332;95424.74;;;;
2022/03/11 04:39:48;;;;;;;7.35;4.6;;;;;;;-2.75;41.40332;95424.74;;;;
2022/03/11 04:40:48;;;;;;;7.35;4.6;;;;;;;-2.75;41.40332;95424.74;;;;
2022/03/11 04:41:49;;;;;;;7.35;4.6;;;;;;;-2.75;41.40332;95424.74;;;;
2022/03/11 04:42:49;;;;;;;7.35;4.6;;;;;;;-2.75;41.40332;95424.74;;;;
2022/03/11 04:43:50;;;;;;;7.35;4.6;;;;;;;-2.75;41.40332;95424.74;;;;
2022/03/11 04:44:50;;;;;;;7.35;4.6;;;;;;;-2.75;41.40332;95424.74;;;;
2022/03/11 04:45:51;;;;;;;7.35;4.6;;;;;;;-2.75;41.40332;95424.74;;;;
2022/03/11 04:46:52;;;;;;;7.35;4.6;;;;;;;-2.75;41.40332;95424.74;;;;
2022/03/11 04:47:52;;;;;;;7.35;4.6;;;;;;;-2.75;41.40332;95424.74;;;;
2022/03/11 04:48:53;;;;;;;7.35;4.6;;;;;;;-2.75;41.40332;95424.74;;;;
2022/03/11 04:49:54;;;;;;;7.35;4.6;;;;;;;-2.75;41.40332;95424.74;;;;
2022/03/11 04:50:56;;;;;;;7.35;4.6;;;;;;;-2.75;41.40332;95424.74;;;;
2022/03/11 04:51:56;;;;;;;7.35;4.6;;;;;;;-2.75;41.40332;95424.74;;;;
2022/03/11 04:52:57;;;;;;;7.35;4.6;;;;;;;-2.75;41.40332;95424.74;;;;
2022/03/11 04:53:59;;;;;;;7.35;4.6;;;;;;;-2.75;41.40332;95424.74;;;;
2022/03/11 04:54:59;;;;;;;7.35;4.6;;;;;;;-2.75;41.40332;95424.74;;;;
2022/03/11 04:55:59;;;;;;;7.35;4.6;;;;;;;-2.75;41.40332;95424.74;;;;
2022/03/11 04:57:00;;;;;;;10.7;4.85;;;;;;;-3.18;41.74902;95419.28;;;;
2022/03/11 04:58:00;;;;;;;10.7;4.85;;;;;;;-3.18;41.74902;95419.28;;;;
2022/03/11 04:59:01;;;;;;;10.7;4.85;;;;;;;-3.18;41.74902;95419.28;;;;
2022/03/11 05:00:03;;;;;;;10.7;4.85;;;;;;;-3.18;41.74902;95419.28;;;;
2022/03/11 05:01:04;;;;;;;10.7;4.85;;;;;;;-3.18;41.74902;95419.28;;;;
2022/03/11 05:02:06;;;;;;;10.7;4.85;;;;;;;-3.18;41.74902;95419.28;;;;
2022/03/11 05:03:06;;;;;;;10.7;4.85;;;;;;;-3.18;41.74902;95419.28;;;;
2022/03/11 05:04:07;;;;;;;10.7;4.85;;;;;;;-3.18;41.74902;95419.28;;;;
2022/03/11 05:05:08;;;;;;;10.7;4.85;;;;;;;-3.18;41.74902;95419.28;;;;
2022/03/11 05:06:10;;;;;;;10.7;4.85;;;;;;;-3.18;41.74902;95419.28;;;;
2022/03/11 05:07:10;;;;;;;7.25;4.55;;;;;;;-3.22;41.99609;95417.91;;;;
2022/03/11 05:08:11;;;;;;;7.25;4.55;;;;;;;-3.22;41.99609;95417.91;;;;
2022/03/11 05:09:12;;;;;;;7.25;4.55;;;;;;;-3.22;41.99609;95417.91;;;;
2022/03/11 05:10:14;;;;;;;7.25;4.55;;;;;;;-3.22;41.99609;95417.91;;;;
2022/03/11 05:11:16;;;;;;;7.25;4.55;;;;;;;-3.22;41.99609;95417.91;;;;
2022/03/11 05:12:16;;;;;;;7.25;4.55;;;;;;;-3.22;41.99609;95417.91;;;;
2022/03/11 05:13:17;;;;;;;7.25;4.55;;;;;;;-3.22;41.99609;95417.91;;;;
2022/03/11 05:14:18;;;;;;;7.25;4.55;;;;;;;-3.22;41.99609;95417.91;;;;
2022/03/11 05:15:18;;;;;;;7.25;4.55;;;;;;;-3.22;41.99609;95417.91;;;;
2022/03/11 05:16:19;;;;;;;7.25;4.55;;;;;;;-3.22;41.99609;95417.91;;;;
2022/03/11 05:17:19;;;;;;;7.25;4.55;;;;;;;-3.22;41.99609;95417.91;;;;
2022/03/11 05:18:20;;;;;;;9.450001;5.05;;;;;;;-3.26;41.84473;95399.9;;;;
2022/03/11 05:19:24;;;;;;;9.450001;5.05;;;;;;;-3.26;41.84473;95399.9;;;;
2022/03/11 05:20:24;;;;;;;9.450001;5.05;;;;;;;-3.26;41.84473;95399.9;;;;
2022/03/11 05:21:25;;;;;;;9.450001;5.05;;;;;;;-3.26;41.84473;95399.9;;;;
2022/03/11 05:22:25;;;;;;;9.450001;5.05;;;;;;;-3.26;41.84473;95399.9;;;;
2022/03/11 05:23:27;;;;;;;9.450001;5.05;;;;;;;-3.26;41.84473;95399.9;;;;
2022/03/11 05:24:27;;;;;;;9.450001;5.05;;;;;;;-3.26;41.84473;95399.9;;;;
2022/03/11 05:25:28;;;;;;;9.450001;5.05;;;;;;;-3.26;41.84473;95399.9;;;;
2022/03/11 05:26:29;;;;;;;9.450001;5.05;;;;;;;-3.26;41.84473;95399.9;;;;
2022/03/11 05:27:29;;;;;;;9.450001;5.05;;;;;;;-3.26;41.84473;95399.9;;;;
2022/03/11 05:28:30;;;;;;;9.150002;4.8;;;;;;;-3.26;41.82422;95391.08;;;;
2022/03/11 05:29:31;;;;;;;9.150002;4.8;;;;;;;-3.26;41.82422;95391.08;;;;
2022/03/11 05:30:34;;;;;;;9.150002;4.8;;;;;;;-3.26;41.82422;95391.08;;;;
2022/03/11 05:31:35;;;;;;;9.150002;4.8;;;;;;;-3.26;41.82422;95391.08;;;;
2022/03/11 05:32:36;;;;;;;9.150002;4.8;;;;;;;-3.26;41.82422;95391.08;;;;
2022/03/11 05:33:41;;;;;;;9.150002;4.8;;;;;;;-3.26;41.82422;95391.08;;;;
2022/03/11 05:34:42;;;;;;;9.150002;4.8;;;;;;;-3.26;41.82422;95391.08;;;;
2022/03/11 05:35:43;;;;;;;9.150002;4.8;;;;;;;-3.26;41.82422;95391.08;;;;
2022/03/11 05:36:43;;;;;;;9.150002;4.8;;;;;;;-3.26;41.82422;95391.08;;;;
2022/03/11 05:37:46;;;;;;;9.150002;4.8;;;;;;;-3.26;41.82422;95391.08;;;;
2022/03/11 05:38:46;;;;;;;8.65;5.349999;;;;;;;-3.37;41.88672;95388.17;;;;
2022/03/11 05:39:47;;;;;;;8.65;5.349999;;;;;;;-3.37;41.88672;95388.17;;;;